createdAt,value
2018-05-29T00:00:03.182Z,22.53
2018-05-29T00:02:31.453Z,22.84
2018-05-29T00:04:59.734Z,22.62
2018-05-29T00:07:28.018Z,22.51
2018-05-29T00:09:56.294Z,22.73
2018-05-29T00:12:24.585Z,22.86
2018-05-29T00:14:52.862Z,22.55
2018-05-29T00:17:21.149Z,22.56
2018-05-29T00:19:49.425Z,22.40
2018-05-29T00:22:17.704Z,22.31
2018-05-29T00:24:45.989Z,22.53
2018-05-29T00:27:14.265Z,22.59
2018-05-29T00:29:42.555Z,22.74
2018-05-29T00:32:10.830Z,22.65
2018-05-29T00:34:39.522Z,22.59
2018-05-29T00:37:07.785Z,22.63
2018-05-29T00:39:36.079Z,22.53
2018-05-29T00:42:04.682Z,22.51
2018-05-29T00:44:32.968Z,22.37
2018-05-29T00:47:01.257Z,22.37
2018-05-29T00:49:29.537Z,22.29
2018-05-29T00:51:58.265Z,22.10
2018-05-29T00:54:26.566Z,22.13
2018-05-29T00:56:54.847Z,22.18
2018-05-29T00:59:23.135Z,22.28
2018-05-29T01:01:51.407Z,22.21
2018-05-29T01:04:19.694Z,22.21
2018-05-29T01:06:47.981Z,21.83
2018-05-29T01:09:16.257Z,22.12
2018-05-29T01:11:44.530Z,22.09
2018-05-29T01:14:12.821Z,22.07
2018-05-29T01:16:41.096Z,22.04
2018-05-29T01:19:09.369Z,22.10
2018-05-29T01:21:37.658Z,21.97
2018-05-29T01:24:05.938Z,22.03
2018-05-29T01:26:34.227Z,21.79
2018-05-29T01:29:02.517Z,22.01
2018-05-29T01:31:30.818Z,21.98
2018-05-29T01:33:59.097Z,21.86
2018-05-29T01:36:27.370Z,21.93
2018-05-29T01:38:55.676Z,21.47
2018-05-29T01:41:23.941Z,21.82
2018-05-29T01:43:52.226Z,21.62
2018-05-29T01:46:20.506Z,21.67
2018-05-29T01:48:48.805Z,21.68
2018-05-29T01:51:17.087Z,21.61
2018-05-29T01:53:45.369Z,21.64
2018-05-29T01:56:13.649Z,21.64
2018-05-29T01:58:41.940Z,21.63
2018-05-29T02:01:10.221Z,21.63
2018-05-29T02:03:38.510Z,21.44
2018-05-29T02:06:06.798Z,21.51
2018-05-29T02:08:35.073Z,21.62
2018-05-29T02:11:03.349Z,21.50
2018-05-29T02:13:31.629Z,21.43
2018-05-29T02:16:00.209Z,21.41
2018-05-29T02:18:28.482Z,21.32
2018-05-29T02:20:56.765Z,21.38
2018-05-29T02:23:25.057Z,21.34
2018-05-29T02:25:53.339Z,21.14
2018-05-29T02:28:21.621Z,21.15
2018-05-29T02:30:49.897Z,21.08
2018-05-29T02:33:18.189Z,21.11
2018-05-29T02:35:46.494Z,21.23
2018-05-29T02:38:14.789Z,21.05
2018-05-29T02:40:43.079Z,20.88
2018-05-29T02:43:11.354Z,20.79
2018-05-29T02:45:39.651Z,20.66
2018-05-29T02:48:07.921Z,20.78
2018-05-29T02:50:36.214Z,20.70
2018-05-29T02:53:04.499Z,20.67
2018-05-29T02:55:32.781Z,20.76
2018-05-29T02:58:01.077Z,20.87
2018-05-29T03:00:29.358Z,20.91
2018-05-29T03:02:57.638Z,20.84
2018-05-29T03:05:25.917Z,20.81
2018-05-29T03:07:54.216Z,20.84
2018-05-29T03:10:22.506Z,20.83
2018-05-29T03:12:50.803Z,20.90
2018-05-29T03:15:19.085Z,20.73
2018-05-29T03:17:47.395Z,20.84
2018-05-29T03:20:15.679Z,20.82
2018-05-29T03:22:43.973Z,20.91
2018-05-29T03:25:12.249Z,20.89
2018-05-29T03:27:40.525Z,20.92
2018-05-29T03:30:08.812Z,20.85
2018-05-29T03:32:37.086Z,20.76
2018-05-29T03:35:05.379Z,20.64
2018-05-29T03:37:33.664Z,20.64
2018-05-29T03:40:01.946Z,20.50
2018-05-29T03:42:30.229Z,20.54
2018-05-29T03:44:58.525Z,20.54
2018-05-29T03:47:26.806Z,20.48
2018-05-29T03:49:55.466Z,20.65
2018-05-29T03:52:23.745Z,20.58
2018-05-29T03:54:52.026Z,20.64
2018-05-29T03:57:20.313Z,20.39
2018-05-29T03:59:49.461Z,20.32
2018-05-29T04:02:17.753Z,20.27
2018-05-29T04:04:46.034Z,20.38
2018-05-29T04:07:14.323Z,20.40
2018-05-29T04:09:42.606Z,20.33
2018-05-29T04:12:10.903Z,20.37
2018-05-29T04:14:39.179Z,20.52
2018-05-29T04:17:07.471Z,20.44
2018-05-29T04:19:35.753Z,20.51
2018-05-29T04:22:04.050Z,20.55
2018-05-29T04:24:32.353Z,20.56
2018-05-29T04:27:00.833Z,20.34
2018-05-29T04:29:29.127Z,20.26
2018-05-29T04:31:57.403Z,20.30
2018-05-29T04:34:25.698Z,20.50
2018-05-29T04:36:53.993Z,20.62
2018-05-29T04:39:22.287Z,20.59
2018-05-29T04:41:50.561Z,20.57
2018-05-29T04:44:18.864Z,20.48
2018-05-29T04:46:47.138Z,20.65
2018-05-29T04:49:15.418Z,20.61
2018-05-29T04:51:43.708Z,20.58
2018-05-29T04:54:11.993Z,20.68
2018-05-29T04:56:40.295Z,20.81
2018-05-29T04:59:08.565Z,20.79
2018-05-29T05:01:36.850Z,20.84
2018-05-29T05:04:05.150Z,20.85
2018-05-29T05:06:33.433Z,20.78
2018-05-29T05:09:01.747Z,20.79
2018-05-29T05:11:30.014Z,20.82
2018-05-29T05:13:58.291Z,20.75
2018-05-29T05:16:26.574Z,20.96
2018-05-29T05:18:54.886Z,20.91
2018-05-29T05:21:23.157Z,20.98
2018-05-29T05:23:51.446Z,21.08
2018-05-29T05:26:19.735Z,21.17
2018-05-29T05:28:48.023Z,21.14
2018-05-29T05:31:16.297Z,21.23
2018-05-29T05:33:44.596Z,21.33
2018-05-29T05:36:12.873Z,21.38
2018-05-29T05:38:41.463Z,21.40
2018-05-29T05:41:09.737Z,21.43
2018-05-29T05:43:38.010Z,21.57
2018-05-29T05:46:06.331Z,21.60
2018-05-29T05:48:34.581Z,21.64
2018-05-29T05:51:02.868Z,21.76
2018-05-29T05:53:31.143Z,21.84
2018-05-29T05:55:59.441Z,21.75
2018-05-29T05:58:27.739Z,21.88
2018-05-29T06:00:56.006Z,21.99
2018-05-29T06:03:24.288Z,21.90
2018-05-29T06:05:52.569Z,22.07
2018-05-29T06:08:20.857Z,22.26
2018-05-29T06:10:49.143Z,22.19
2018-05-29T06:13:17.430Z,22.34
2018-05-29T06:15:45.710Z,22.41
2018-05-29T06:18:13.998Z,22.66
2018-05-29T06:20:42.273Z,22.74
2018-05-29T06:23:10.562Z,22.82
2018-05-29T06:25:38.853Z,22.91
2018-05-29T06:28:07.141Z,22.83
2018-05-29T06:30:35.426Z,22.89
2018-05-29T06:33:03.714Z,23.00
2018-05-29T06:35:31.989Z,23.10
2018-05-29T06:38:00.282Z,23.27
2018-05-29T06:40:29.474Z,23.15
2018-05-29T06:42:57.757Z,23.58
2018-05-29T06:45:26.045Z,23.33
2018-05-29T06:47:54.327Z,23.75
2018-05-29T06:50:22.613Z,23.93
2018-05-29T06:52:50.898Z,23.95
2018-05-29T06:55:19.182Z,24.38
2018-05-29T06:57:47.468Z,24.80
2018-05-29T07:00:15.753Z,24.76
2018-05-29T07:02:44.034Z,24.83
2018-05-29T07:05:12.341Z,25.17
2018-05-29T07:07:40.620Z,25.41
2018-05-29T07:10:08.910Z,25.39
2018-05-29T07:12:37.201Z,26.06
2018-05-29T07:15:05.474Z,25.76
2018-05-29T07:17:33.762Z,25.64
2018-05-29T07:20:02.038Z,26.13
2018-05-29T07:22:30.330Z,25.79
2018-05-29T07:24:58.609Z,25.82
2018-05-29T07:27:26.905Z,25.93
2018-05-29T07:29:55.191Z,25.28
2018-05-29T07:32:23.834Z,25.69
2018-05-29T07:34:52.106Z,25.48
2018-05-29T07:37:20.386Z,25.42
2018-05-29T07:39:48.697Z,26.15
2018-05-29T07:42:16.953Z,26.37
2018-05-29T07:44:45.249Z,26.43
2018-05-29T07:47:13.530Z,27.13
2018-05-29T07:49:41.825Z,26.07
2018-05-29T07:52:10.110Z,26.59
2018-05-29T07:54:38.399Z,27.02
2018-05-29T07:57:06.670Z,27.65
2018-05-29T07:59:34.957Z,27.91
2018-05-29T08:02:03.237Z,27.40
2018-05-29T08:04:31.514Z,27.19
2018-05-29T08:06:59.805Z,26.43
2018-05-29T08:09:28.090Z,27.49
2018-05-29T08:11:56.378Z,26.84
2018-05-29T08:14:24.666Z,26.63
2018-05-29T08:16:52.961Z,26.55
2018-05-29T08:19:21.310Z,27.07
2018-05-29T08:21:49.594Z,26.74
2018-05-29T08:24:17.882Z,26.91
2018-05-29T08:26:46.184Z,26.32
2018-05-29T08:29:14.466Z,26.74
2018-05-29T08:31:42.742Z,27.23
2018-05-29T08:34:11.034Z,27.35
2018-05-29T08:36:39.314Z,26.78
2018-05-29T08:39:07.628Z,26.92
2018-05-29T08:41:35.911Z,26.75
2018-05-29T08:44:04.198Z,27.05
2018-05-29T08:46:32.479Z,27.05
2018-05-29T08:49:00.770Z,26.97
2018-05-29T08:51:29.141Z,27.21
2018-05-29T08:53:57.434Z,26.88
2018-05-29T08:56:25.710Z,27.26
2018-05-29T08:58:54.009Z,27.15
2018-05-29T09:01:22.305Z,27.15
2018-05-29T09:03:50.598Z,27.46
2018-05-29T09:06:18.894Z,27.58
2018-05-29T09:08:47.178Z,28.17
2018-05-29T09:11:15.471Z,28.57
2018-05-29T09:13:43.762Z,28.35
2018-05-29T09:16:12.065Z,28.17
2018-05-29T09:18:40.347Z,28.14
2018-05-29T09:21:08.655Z,28.22
2018-05-29T09:23:36.945Z,28.25
2018-05-29T09:26:05.311Z,28.45
2018-05-29T09:28:34.339Z,28.48
2018-05-29T09:31:02.615Z,28.73
2018-05-29T09:33:30.914Z,28.74
2018-05-29T09:35:59.217Z,28.53
2018-05-29T09:38:27.604Z,28.38
2018-05-29T09:40:55.886Z,28.23
2018-05-29T09:43:24.195Z,28.35
2018-05-29T09:45:52.571Z,28.31
2018-05-29T09:48:20.825Z,28.25
2018-05-29T09:50:49.115Z,28.35
2018-05-29T09:53:17.406Z,28.46
2018-05-29T09:55:45.749Z,28.78
2018-05-29T09:58:14.026Z,28.70
2018-05-29T10:00:42.335Z,28.95
2018-05-29T10:03:10.619Z,28.91
2018-05-29T10:05:38.917Z,28.96
2018-05-29T10:08:08.762Z,29.04
2018-05-29T10:10:37.182Z,28.97
2018-05-29T10:13:05.468Z,28.97
2018-05-29T10:15:33.776Z,28.67
2018-05-29T10:18:02.058Z,28.87
2018-05-29T10:20:30.783Z,28.54
2018-05-29T10:22:59.062Z,28.64
2018-05-29T10:25:27.354Z,28.66
2018-05-29T10:27:55.646Z,28.82
2018-05-29T10:30:23.942Z,29.05
2018-05-29T10:32:52.239Z,29.35
2018-05-29T10:35:20.538Z,29.64
2018-05-29T10:37:48.837Z,30.07
2018-05-29T10:40:17.124Z,29.80
2018-05-29T10:42:45.410Z,30.09
2018-05-29T10:45:13.710Z,30.19
2018-05-29T10:47:42.362Z,29.19
2018-05-29T10:50:10.645Z,29.56
2018-05-29T10:52:38.925Z,29.82
2018-05-29T10:55:07.437Z,30.25
2018-05-29T10:57:35.915Z,29.75
2018-05-29T11:00:04.206Z,29.94
2018-05-29T11:02:32.506Z,30.08
2018-05-29T11:05:00.830Z,29.73
2018-05-29T11:07:29.127Z,29.73
2018-05-29T11:09:59.794Z,28.96
2018-05-29T11:12:28.837Z,29.71
2018-05-29T11:14:57.324Z,29.72
2018-05-29T11:17:25.704Z,29.85
2018-05-29T11:19:53.990Z,30.25
2018-05-29T11:22:22.519Z,30.47
2018-05-29T11:24:50.786Z,30.59
2018-05-29T11:27:19.078Z,30.49
2018-05-29T11:29:47.723Z,30.44
2018-05-29T11:32:16.650Z,30.65
2018-05-29T11:34:44.996Z,31.18
2018-05-29T11:37:13.376Z,30.92
2018-05-29T11:39:42.493Z,31.05
2018-05-29T11:42:11.819Z,30.40
2018-05-29T11:44:40.298Z,31.05
2018-05-29T11:47:08.719Z,31.14
2018-05-29T11:49:37.780Z,30.45
2018-05-29T11:52:06.254Z,30.11
2018-05-29T11:54:34.616Z,30.24
2018-05-29T11:57:03.100Z,30.20
2018-05-29T11:59:31.383Z,29.93
2018-05-29T12:01:59.675Z,30.24
2018-05-29T12:04:28.264Z,29.72
2018-05-29T12:06:56.591Z,29.41
2018-05-29T12:09:24.917Z,29.55
2018-05-29T12:12:05.053Z,29.70
2018-05-29T12:14:33.333Z,30.00
2018-05-29T12:17:01.618Z,30.61
2018-05-29T12:19:29.917Z,30.07
2018-05-29T12:21:58.207Z,30.68
2018-05-29T12:24:26.494Z,30.60
2018-05-29T12:26:58.907Z,31.25
2018-05-29T12:29:27.190Z,31.21
2018-05-29T12:31:55.622Z,31.39
2018-05-29T12:34:23.973Z,31.66
2018-05-29T12:36:52.206Z,31.60
2018-05-29T12:39:20.494Z,31.91
2018-05-29T12:41:48.778Z,32.39
2018-05-29T12:44:17.073Z,31.85
2018-05-29T12:46:45.423Z,31.75
2018-05-29T12:49:13.787Z,31.71
2018-05-29T12:51:42.117Z,31.46
2018-05-29T12:54:10.405Z,30.86
2018-05-29T12:56:38.766Z,30.62
2018-05-29T12:59:07.089Z,30.51
2018-05-29T13:01:35.350Z,30.07
2018-05-29T13:04:03.653Z,30.17
2018-05-29T13:06:31.939Z,30.12
2018-05-29T13:09:00.218Z,29.84
2018-05-29T13:11:28.520Z,29.67
2018-05-29T13:13:56.830Z,29.69
2018-05-29T13:16:25.114Z,29.67
2018-05-29T13:18:53.404Z,29.56
2018-05-29T13:21:21.683Z,29.62
2018-05-29T13:23:49.969Z,29.19
2018-05-29T13:26:18.254Z,29.24
2018-05-29T13:28:46.542Z,29.02
2018-05-29T13:31:16.082Z,28.92
2018-05-29T13:33:44.371Z,28.82
2018-05-29T13:36:12.650Z,28.75
2018-05-29T13:38:41.238Z,28.71
2018-05-29T13:41:09.698Z,28.75
2018-05-29T13:43:37.987Z,28.67
2018-05-29T13:46:10.276Z,28.69
2018-05-29T13:48:38.572Z,28.46
2018-05-29T13:51:06.882Z,28.53
2018-05-29T13:53:35.167Z,28.63
2018-05-29T13:56:03.474Z,28.53
2018-05-29T13:58:33.751Z,28.50
2018-05-29T14:01:02.118Z,28.41
2018-05-29T14:03:30.399Z,28.20
2018-05-29T14:05:58.690Z,28.20
2018-05-29T14:08:26.978Z,27.49
2018-05-29T14:10:55.259Z,26.98
2018-05-29T14:13:23.551Z,26.51
2018-05-29T14:15:51.822Z,26.40
2018-05-29T14:18:20.114Z,26.41
2018-05-29T14:20:52.030Z,26.48
2018-05-29T14:23:20.344Z,26.33
2018-05-29T14:25:48.631Z,26.36
2018-05-29T14:28:16.911Z,26.32
2018-05-29T14:30:45.206Z,26.22
2018-05-29T14:33:13.488Z,26.33
2018-05-29T14:35:41.762Z,26.35
2018-05-29T14:38:10.037Z,26.42
2018-05-29T14:40:38.332Z,26.69
2018-05-29T14:43:06.613Z,26.67
2018-05-29T14:45:34.956Z,26.63
2018-05-29T14:48:03.223Z,26.49
2018-05-29T14:50:31.605Z,26.61
2018-05-29T14:52:59.883Z,26.53
2018-05-29T14:55:28.158Z,26.61
2018-05-29T14:57:56.434Z,26.18
2018-05-29T15:00:24.725Z,26.44
2018-05-29T15:02:53.012Z,25.96
2018-05-29T15:05:21.411Z,26.24
2018-05-29T15:07:49.698Z,26.18
2018-05-29T15:10:17.966Z,26.12
2018-05-29T15:12:46.258Z,26.18
2018-05-29T15:15:14.554Z,25.99
2018-05-29T15:17:42.831Z,26.18
2018-05-29T15:20:11.139Z,26.15
2018-05-29T15:22:39.406Z,25.55
2018-05-29T15:25:07.702Z,25.21
2018-05-29T15:27:35.969Z,25.00
2018-05-29T15:30:04.265Z,25.05
2018-05-29T15:32:32.534Z,25.15
2018-05-29T15:35:00.819Z,24.90
2018-05-29T15:37:29.101Z,24.86
2018-05-29T15:39:57.402Z,24.74
2018-05-29T15:42:25.848Z,24.30
2018-05-29T15:44:54.098Z,24.17
2018-05-29T15:47:22.426Z,24.08
2018-05-29T15:49:50.702Z,24.26
2018-05-29T15:52:18.990Z,24.45
2018-05-29T15:54:47.368Z,24.31
2018-05-29T15:57:15.622Z,24.20
2018-05-29T15:59:43.938Z,24.38
2018-05-29T16:02:12.214Z,24.50
2018-05-29T16:04:40.489Z,24.44
2018-05-29T16:07:08.778Z,24.16
2018-05-29T16:09:37.084Z,24.22
2018-05-29T16:12:05.392Z,23.98
2018-05-29T16:14:33.674Z,23.93
2018-05-29T16:17:01.943Z,24.00
2018-05-29T16:19:30.232Z,23.99
2018-05-29T16:21:58.506Z,24.06
2018-05-29T16:24:26.817Z,23.97
2018-05-29T16:26:55.088Z,24.26
2018-05-29T16:29:23.366Z,23.97
2018-05-29T16:31:51.655Z,23.80
2018-05-29T16:34:19.936Z,23.98
2018-05-29T16:36:48.224Z,23.98
2018-05-29T16:39:20.936Z,23.86
2018-05-29T16:41:49.211Z,23.80
2018-05-29T16:44:18.436Z,23.87
2018-05-29T16:46:46.733Z,23.70
2018-05-29T16:49:15.006Z,23.95
2018-05-29T16:51:43.545Z,23.91
2018-05-29T16:54:11.835Z,23.59
2018-05-29T16:56:40.321Z,23.56
2018-05-29T16:59:08.616Z,23.30
2018-05-29T17:01:36.890Z,23.41
2018-05-29T17:04:05.180Z,23.19
2018-05-29T17:06:33.453Z,23.59
2018-05-29T17:09:01.747Z,23.19
2018-05-29T17:11:30.105Z,23.31
2018-05-29T17:13:58.417Z,23.69
2018-05-29T17:16:26.693Z,23.29
2018-05-29T17:18:54.986Z,23.42
2018-05-29T17:21:23.258Z,23.51
2018-05-29T17:23:51.535Z,23.24
2018-05-29T17:26:19.838Z,23.29
2018-05-29T17:28:48.097Z,23.39
2018-05-29T17:31:16.393Z,23.15
2018-05-29T17:33:44.658Z,23.51
2018-05-29T17:36:12.950Z,22.94
2018-05-29T17:38:41.244Z,22.99
2018-05-29T17:41:09.529Z,23.23
2018-05-29T17:43:37.811Z,23.03
2018-05-29T17:46:06.093Z,23.05
2018-05-29T17:48:34.434Z,23.22
2018-05-29T17:51:04.741Z,22.58
2018-05-29T17:53:33.634Z,22.92
2018-05-29T17:56:01.960Z,22.85
2018-05-29T17:58:30.219Z,23.06
2018-05-29T18:00:58.512Z,23.10
2018-05-29T18:03:26.790Z,23.20
2018-05-29T18:05:55.062Z,23.32
2018-05-29T18:08:23.351Z,23.23
2018-05-29T18:10:51.639Z,23.08
2018-05-29T18:13:22.514Z,22.88
2018-05-29T18:15:52.721Z,22.93
2018-05-29T18:18:21.005Z,23.00
2018-05-29T18:20:49.337Z,23.16
2018-05-29T18:23:17.610Z,23.18
2018-05-29T18:25:45.889Z,23.53
2018-05-29T18:28:14.167Z,22.88
2018-05-29T18:30:43.369Z,23.23
2018-05-29T18:33:11.678Z,23.15
2018-05-29T18:35:39.965Z,22.91
2018-05-29T18:38:08.279Z,23.10
2018-05-29T18:40:36.564Z,22.93
2018-05-29T18:43:04.862Z,23.19
2018-05-29T18:45:33.150Z,23.17
2018-05-29T18:48:01.430Z,23.23
2018-05-29T18:50:29.713Z,23.30
2018-05-29T18:52:58.026Z,23.25
2018-05-29T18:55:26.302Z,23.07
2018-05-29T18:57:54.644Z,22.80
2018-05-29T19:00:22.907Z,23.06
2018-05-29T19:02:51.190Z,23.03
2018-05-29T19:05:19.464Z,23.10
2018-05-29T19:07:47.763Z,22.91
2018-05-29T19:10:16.037Z,22.92
2018-05-29T19:12:44.314Z,22.99
2018-05-29T19:15:12.609Z,22.79
2018-05-29T19:17:41.551Z,22.73
2018-05-29T19:20:09.837Z,22.76
2018-05-29T19:22:38.144Z,23.37
2018-05-29T19:25:06.414Z,23.09
2018-05-29T19:27:34.696Z,23.14
2018-05-29T19:30:02.985Z,23.13
2018-05-29T19:32:31.303Z,23.33
2018-05-29T19:34:59.575Z,23.51
2018-05-29T19:37:27.877Z,23.30
2018-05-29T19:39:56.167Z,23.30
2018-05-29T19:42:24.457Z,23.29
2018-05-29T19:44:52.819Z,23.05
2018-05-29T19:47:21.054Z,23.28
2018-05-29T19:49:49.334Z,23.00
2018-05-29T19:52:17.642Z,22.84
2018-05-29T19:54:45.926Z,22.93
2018-05-29T19:57:14.198Z,23.03
2018-05-29T19:59:44.334Z,22.95
2018-05-29T20:02:13.550Z,23.18
2018-05-29T20:04:41.850Z,23.00
2018-05-29T20:07:10.148Z,22.94
2018-05-29T20:09:38.427Z,23.09
2018-05-29T20:12:06.739Z,23.12
2018-05-29T20:14:35.022Z,22.78
2018-05-29T20:17:03.294Z,22.89
2018-05-29T20:19:31.594Z,22.94
2018-05-29T20:21:59.886Z,22.70
2018-05-29T20:24:28.167Z,22.67
2018-05-29T20:26:56.465Z,22.64
2018-05-29T20:29:24.749Z,22.91
2018-05-29T20:31:53.026Z,22.93
2018-05-29T20:34:21.403Z,22.94
2018-05-29T20:36:49.717Z,22.78
2018-05-29T20:39:17.971Z,22.86
2018-05-29T20:41:47.153Z,22.78
2018-05-29T20:44:15.435Z,22.83
2018-05-29T20:46:43.714Z,22.80
2018-05-29T20:49:12.023Z,22.77
2018-05-29T20:51:40.306Z,22.63
2018-05-29T20:54:08.611Z,22.67
2018-05-29T20:56:37.157Z,22.64
2018-05-29T20:59:05.438Z,22.80
2018-05-29T21:01:33.725Z,22.78
2018-05-29T21:04:02.013Z,22.69
2018-05-29T21:06:30.298Z,22.61
2018-05-29T21:08:58.583Z,22.45
2018-05-29T21:11:26.878Z,22.09
2018-05-29T21:13:55.180Z,22.28
2018-05-29T21:16:23.445Z,22.13
2018-05-29T21:18:51.729Z,22.13
2018-05-29T21:21:20.013Z,21.99
2018-05-29T21:23:48.294Z,22.11
2018-05-29T21:26:16.593Z,22.21
2018-05-29T21:28:44.877Z,22.09
2018-05-29T21:31:13.154Z,22.15
2018-05-29T21:33:41.479Z,22.13
2018-05-29T21:36:09.763Z,21.71
2018-05-29T21:38:38.025Z,21.76
2018-05-29T21:41:06.322Z,21.63
2018-05-29T21:43:34.606Z,21.63
2018-05-29T21:46:02.898Z,21.52
2018-05-29T21:48:31.199Z,21.51
2018-05-29T21:50:59.473Z,21.68
2018-05-29T21:53:27.758Z,21.69
2018-05-29T21:55:56.053Z,21.84
2018-05-29T21:58:24.329Z,21.93
2018-05-29T22:00:52.617Z,21.86
2018-05-29T22:03:20.913Z,21.61
2018-05-29T22:05:49.194Z,21.84
2018-05-29T22:08:17.473Z,21.91
2018-05-29T22:10:45.778Z,21.88
2018-05-29T22:13:14.062Z,21.87
2018-05-29T22:15:42.341Z,21.90
2018-05-29T22:18:10.641Z,22.11
2018-05-29T22:20:38.918Z,22.07
2018-05-29T22:23:07.197Z,21.99
2018-05-29T22:25:35.489Z,21.84
2018-05-29T22:28:03.778Z,21.92
2018-05-29T22:30:32.089Z,21.89
2018-05-29T22:33:00.370Z,21.96
2018-05-29T22:35:28.651Z,21.77
2018-05-29T22:37:56.938Z,21.91
2018-05-29T22:40:25.234Z,21.82
2018-05-29T22:42:53.514Z,21.81
2018-05-29T22:45:21.794Z,21.84
2018-05-29T22:47:50.102Z,21.81
2018-05-29T22:50:18.361Z,21.96
2018-05-29T22:52:46.642Z,21.79
2018-05-29T22:55:14.942Z,21.90
2018-05-29T22:57:43.225Z,21.98
2018-05-29T23:00:11.515Z,21.97
2018-05-29T23:02:39.550Z,21.96
2018-05-29T23:05:07.829Z,22.03
2018-05-29T23:07:36.117Z,21.84
2018-05-29T23:10:04.412Z,21.91
2018-05-29T23:12:32.702Z,21.82
2018-05-29T23:17:28.330Z,21.85
2018-05-29T23:19:56.615Z,21.71
2018-05-29T23:22:24.891Z,21.81
2018-05-29T23:24:53.198Z,21.76
2018-05-29T23:27:21.474Z,21.95
2018-05-29T23:29:49.756Z,21.59
2018-05-29T23:32:18.054Z,21.52
2018-05-29T23:34:46.326Z,21.20
2018-05-29T23:37:14.610Z,21.25
2018-05-29T23:39:42.921Z,21.39
2018-05-29T23:42:11.209Z,21.57
2018-05-29T23:44:39.485Z,21.67
2018-05-29T23:47:08.061Z,21.58
2018-05-29T23:49:36.334Z,21.55
2018-05-29T23:52:04.615Z,21.59
2018-05-29T23:54:32.904Z,21.69
2018-05-29T23:57:01.221Z,21.45
2018-05-29T23:59:29.500Z,21.45
